Hethersett, United Kingdom
Current Conditions -  °F | °C
As of 3:50 PM on Thursday 27 Nov 2014 (Local Time) from EGSH Reporting Station
Broken Clouds Broken Clouds  
Wind Chill: 52°   Ceiling: 1100
Heat Index: 52°   Visibility: 4mi
Dew Point: 50°   Wind: 3mph
Humidity: 94%   Direction: NA
Pressure: 29.62"   Gusts: NA
Location:  52.6°N, 1.17°E
Report Text: EGSH 271550Z VRB03KT 6000 BKN011 11/10 Q1003 TEMPO BKN008
Loading
Personal Weather Stations






























Interactive Weather Map New forecast layout! Learn more

10-Day Weather Forecast

Advertisements
Track Severe Weather on mobile